createdAt,value
2023-04-05T00:01:39.055Z,2.47
2023-04-05T00:04:08.694Z,2.80
2023-04-05T00:06:39.952Z,2.53
2023-04-05T00:09:10.429Z,2.60
2023-04-05T00:11:39.488Z,2.83
2023-04-05T00:14:08.548Z,3.07
2023-04-05T00:16:37.845Z,2.47
2023-04-05T00:19:06.909Z,2.40
2023-04-05T00:21:36.801Z,2.73
2023-04-05T00:24:06.249Z,2.57
2023-04-05T00:26:37.183Z,2.40
2023-04-05T00:29:06.272Z,2.70
2023-04-05T00:31:35.590Z,2.60
2023-04-05T00:34:08.846Z,2.50
2023-04-05T00:36:38.084Z,2.63
2023-04-05T00:39:07.196Z,2.50
2023-04-05T00:41:37.647Z,2.33
2023-04-05T00:44:07.646Z,2.17
2023-04-05T00:46:37.571Z,2.17
2023-04-05T00:49:06.818Z,2.53
2023-04-05T00:51:37.952Z,1.97
2023-04-05T00:54:08.615Z,2.03
2023-04-05T00:56:39.973Z,2.47
2023-04-05T00:59:09.410Z,1.80
2023-04-05T01:01:42.082Z,2.40
2023-04-05T01:04:14.470Z,2.23
2023-04-05T01:06:54.252Z,2.70
2023-04-05T01:09:37.970Z,2.50
2023-04-05T01:12:10.985Z,2.80
2023-04-05T01:14:47.896Z,2.33
2023-04-05T01:17:21.919Z,3.17
2023-04-05T01:19:53.300Z,2.53
2023-04-05T01:23:11.279Z,2.30
2023-04-05T01:26:11.141Z,2.50
2023-04-05T01:29:00.996Z,2.30
2023-04-05T01:31:38.468Z,2.30
2023-04-05T01:34:16.090Z,2.33
2023-04-05T01:36:50.413Z,2.30
2023-04-05T01:39:22.274Z,2.40
2023-04-05T01:41:52.024Z,2.70
2023-04-05T01:44:21.115Z,1.90
2023-04-05T01:46:51.710Z,2.80
2023-04-05T01:49:20.974Z,2.73
2023-04-05T01:51:50.156Z,2.30
2023-04-05T01:54:19.445Z,2.63
2023-04-05T01:56:48.513Z,2.33
2023-04-05T01:59:17.690Z,2.43
2023-04-05T02:01:46.838Z,2.00
2023-04-05T02:04:17.258Z,2.53
2023-04-05T02:06:46.423Z,3.20
2023-04-05T02:09:16.067Z,2.90
2023-04-05T02:11:47.669Z,2.60
2023-04-05T02:14:17.158Z,2.90
2023-04-05T02:16:46.746Z,2.77
2023-04-05T02:19:22.925Z,2.53
2023-04-05T02:21:53.729Z,2.37
2023-04-05T02:24:22.880Z,2.57
2023-04-05T02:26:52.167Z,2.57
2023-04-05T02:29:21.191Z,2.37
2023-04-05T02:31:51.650Z,2.90
2023-04-05T02:34:22.817Z,2.83
2023-04-05T02:36:52.445Z,2.00
2023-04-05T02:39:21.746Z,2.10
2023-04-05T02:41:50.921Z,2.30
2023-04-05T02:44:20.038Z,2.30
2023-04-05T02:46:49.117Z,2.73
2023-04-05T02:49:20.848Z,2.27
2023-04-05T02:51:50.059Z,2.27
2023-04-05T02:54:19.885Z,2.90
2023-04-05T02:56:49.911Z,3.47
2023-04-05T02:59:20.704Z,2.70
2023-04-05T03:01:50.224Z,3.23
2023-04-05T03:04:27.656Z,2.77
2023-04-05T03:07:02.832Z,2.73
2023-04-05T03:09:34.654Z,2.73
2023-04-05T03:12:08.239Z,2.40
2023-04-05T03:14:41.307Z,3.20
2023-04-05T03:17:13.406Z,2.97
2023-04-05T03:19:48.272Z,2.43
2023-04-05T03:22:28.296Z,2.87
2023-04-05T03:24:59.307Z,2.60
2023-04-05T03:27:29.621Z,2.57
2023-04-05T03:30:19.442Z,1.97
2023-04-05T03:33:03.899Z,1.80
2023-04-05T03:35:41.958Z,2.40
2023-04-05T03:38:13.397Z,2.70
2023-04-05T03:40:55.807Z,2.10
2023-04-05T03:43:24.984Z,2.53
2023-04-05T03:45:54.833Z,2.37
2023-04-05T03:48:24.066Z,2.80
2023-04-05T03:50:54.504Z,2.20
2023-04-05T03:53:23.723Z,2.07
2023-04-05T03:55:56.487Z,2.30
2023-04-05T03:58:41.601Z,2.20
2023-04-05T04:01:11.346Z,2.17
2023-04-05T04:03:40.595Z,2.10
2023-04-05T04:06:11.431Z,2.60
2023-04-05T04:08:40.830Z,2.20
2023-04-05T04:11:11.159Z,2.10
2023-04-05T04:13:42.244Z,2.73
2023-04-05T04:16:28.998Z,2.43
2023-04-05T04:19:21.474Z,2.03
2023-04-05T04:22:20.737Z,2.33
2023-04-05T04:25:11.112Z,2.50
2023-04-05T04:27:46.568Z,2.50
2023-04-05T04:30:25.059Z,2.40
2023-04-05T04:32:59.882Z,2.47
2023-04-05T04:35:47.754Z,3.03
2023-04-05T04:38:56.902Z,3.00
2023-04-05T04:41:55.901Z,3.00
2023-04-05T04:44:33.960Z,2.30
2023-04-05T04:47:25.353Z,2.77
2023-04-05T04:50:08.787Z,2.80
2023-04-05T04:52:37.892Z,2.53
2023-04-05T04:55:10.029Z,2.83
2023-04-05T04:57:39.086Z,3.17
2023-04-05T05:00:13.126Z,3.03
2023-04-05T05:02:43.996Z,3.30
2023-04-05T05:05:16.122Z,2.30
2023-04-05T05:07:45.270Z,3.27
2023-04-05T05:10:17.562Z,2.80
2023-04-05T05:12:48.819Z,2.87
2023-04-05T05:15:19.054Z,3.23
2023-04-05T05:17:53.641Z,2.60
2023-04-05T05:20:23.070Z,2.43
2023-04-05T05:22:52.545Z,2.60
2023-04-05T05:25:23.096Z,3.40
2023-04-05T05:27:52.410Z,3.17
2023-04-05T05:30:24.369Z,2.67
2023-04-05T05:32:53.844Z,2.20
2023-04-05T05:35:23.111Z,2.47
2023-04-05T05:37:53.680Z,3.20
2023-04-05T05:40:26.720Z,2.90
2023-04-05T05:42:55.787Z,3.03
2023-04-05T05:45:24.861Z,2.57
2023-04-05T05:47:53.982Z,3.53
2023-04-05T05:50:23.105Z,3.33
2023-04-05T05:52:52.199Z,3.37
2023-04-05T05:55:21.484Z,2.70
2023-04-05T05:57:52.884Z,2.80
2023-04-05T06:00:22.833Z,2.53
2023-04-05T06:02:52.645Z,2.53
2023-04-05T06:05:21.847Z,3.00
2023-04-05T06:07:50.939Z,2.83
2023-04-05T06:10:20.212Z,3.27
2023-04-05T06:12:49.346Z,2.73
2023-04-05T06:15:19.996Z,3.50
2023-04-05T06:17:49.197Z,2.83
2023-04-05T06:20:18.505Z,2.73
2023-04-05T06:22:47.637Z,2.97
2023-04-05T06:25:18.327Z,2.83
2023-04-05T06:27:47.627Z,2.80
2023-04-05T06:30:16.963Z,3.00
2023-04-05T06:32:48.702Z,2.60
2023-04-05T06:35:17.906Z,2.90
2023-04-05T06:37:46.956Z,2.33
2023-04-05T06:40:17.016Z,2.10
2023-04-05T06:42:46.437Z,2.30
2023-04-05T06:45:20.117Z,1.83
2023-04-05T06:47:51.186Z,2.50
2023-04-05T06:50:20.642Z,2.63
2023-04-05T06:52:49.678Z,2.60
2023-04-05T06:55:18.824Z,2.57
2023-04-05T06:57:47.867Z,2.40
2023-04-05T07:00:17.575Z,2.10
2023-04-05T07:02:46.646Z,2.40
2023-04-05T07:05:17.576Z,2.20
2023-04-05T07:07:48.734Z,2.40
2023-04-05T07:10:17.915Z,2.03
2023-04-05T07:12:47.837Z,2.30
2023-04-05T07:15:17.214Z,2.43
2023-04-05T07:17:46.404Z,2.03
2023-04-05T07:20:17.271Z,2.30
2023-04-05T07:22:46.409Z,2.10
2023-04-05T07:25:15.689Z,2.03
2023-04-05T07:27:44.752Z,2.05
2023-04-05T07:30:14.872Z,1.63
2023-04-05T07:32:44.024Z,1.55
2023-04-05T07:35:13.184Z,1.70
2023-04-05T07:37:43.614Z,1.70
2023-04-05T07:40:13.417Z,1.77
2023-04-05T07:42:42.509Z,2.20
2023-04-05T07:45:12.253Z,2.47
2023-04-05T07:47:41.356Z,2.08
2023-04-05T07:50:14.813Z,1.67
2023-04-05T07:52:45.419Z,2.20
2023-04-05T07:55:14.524Z,2.17
2023-04-05T07:57:43.538Z,2.10
2023-04-05T08:00:13.843Z,1.80
2023-04-05T08:02:42.897Z,2.00
2023-04-05T08:05:12.265Z,2.15
2023-04-05T08:07:41.530Z,2.28
2023-04-05T08:10:12.694Z,1.92
2023-04-05T08:12:41.762Z,1.92
2023-04-05T08:15:11.562Z,2.08
2023-04-05T08:17:40.674Z,2.22
2023-04-05T08:20:10.724Z,2.17
2023-04-05T08:22:39.812Z,2.22
2023-04-05T08:25:11.479Z,2.05
2023-04-05T08:27:41.280Z,2.03
2023-04-05T08:30:11.569Z,2.00
2023-04-05T08:32:40.983Z,2.05
2023-04-05T08:35:10.519Z,2.28
2023-04-05T08:37:39.641Z,2.10
2023-04-05T08:40:11.286Z,2.28
2023-04-05T08:42:47.908Z,2.38
2023-04-05T08:45:21.739Z,2.03
2023-04-05T08:47:53.228Z,2.13
2023-04-05T08:50:24.426Z,2.17
2023-04-05T08:52:53.569Z,2.25
2023-04-05T08:55:24.132Z,1.90
2023-04-05T08:57:59.080Z,2.58
2023-04-05T09:00:29.594Z,2.10
2023-04-05T09:03:02.579Z,2.28
2023-04-05T09:05:32.956Z,2.10
2023-04-05T09:08:02.752Z,1.80
2023-04-05T09:10:33.761Z,2.38
2023-04-05T09:13:03.514Z,2.50
2023-04-05T09:15:32.850Z,2.47
2023-04-05T09:18:04.076Z,2.20
2023-04-05T09:20:36.586Z,2.78
2023-04-05T09:23:05.862Z,2.30
2023-04-05T09:25:38.729Z,2.60
2023-04-05T09:28:08.407Z,2.58
2023-04-05T09:30:38.122Z,2.13
2023-04-05T09:33:11.563Z,2.50
2023-04-05T09:35:40.688Z,2.13
2023-04-05T09:38:09.824Z,2.60
2023-04-05T09:40:46.484Z,2.30
2023-04-05T09:43:39.969Z,2.08
2023-04-05T09:46:28.161Z,1.90
2023-04-05T09:48:57.897Z,2.40
2023-04-05T09:51:34.596Z,2.20
2023-04-05T09:54:07.320Z,2.47
2023-04-05T09:56:39.547Z,2.40
2023-04-05T09:59:10.771Z,2.35
2023-04-05T10:01:44.652Z,2.28
2023-04-05T10:04:13.925Z,2.72
2023-04-05T10:06:43.981Z,2.65
2023-04-05T10:09:15.107Z,2.53
2023-04-05T10:11:46.438Z,2.33
2023-04-05T10:14:15.587Z,2.30
2023-04-05T10:16:51.362Z,2.10
2023-04-05T10:19:29.436Z,2.40
2023-04-05T10:22:01.816Z,2.70
2023-04-05T10:24:40.558Z,2.10
2023-04-05T10:27:18.843Z,2.53
2023-04-05T10:29:55.752Z,2.80
2023-04-05T10:32:32.474Z,2.27
2023-04-05T10:35:09.954Z,2.03
2023-04-05T10:37:50.212Z,1.80
2023-04-05T10:40:23.089Z,2.13
2023-04-05T10:42:53.855Z,2.10
2023-04-05T10:45:24.679Z,1.67
2023-04-05T10:48:02.065Z,2.20
2023-04-05T10:50:32.554Z,2.13
2023-04-05T10:53:03.065Z,1.63
2023-04-05T10:55:32.660Z,1.80
2023-04-05T10:58:03.683Z,1.70
2023-04-05T11:00:33.280Z,2.17
2023-04-05T11:03:02.458Z,2.20
2023-04-05T11:05:34.151Z,1.65
2023-04-05T11:08:07.275Z,2.40
2023-04-05T11:10:38.598Z,1.95
2023-04-05T11:13:11.548Z,1.67
2023-04-05T11:15:40.948Z,1.95
2023-04-05T11:18:12.220Z,1.65
2023-04-05T11:20:46.925Z,1.60
2023-04-05T11:23:18.698Z,1.75
2023-04-05T11:25:52.212Z,1.88
2023-04-05T11:28:27.189Z,1.98
2023-04-05T11:30:58.668Z,1.85
2023-04-05T11:33:58.715Z,1.70
2023-04-05T11:36:44.195Z,2.10
2023-04-05T11:39:27.165Z,2.27
2023-04-05T11:41:59.678Z,2.40
2023-04-05T11:44:34.191Z,2.27
2023-04-05T11:47:06.061Z,2.90
2023-04-05T11:49:36.179Z,2.10
2023-04-05T11:52:13.136Z,1.70
2023-04-05T11:54:46.103Z,2.10
2023-04-05T11:57:17.171Z,1.77
2023-04-05T11:59:47.653Z,1.67
2023-04-05T12:02:17.198Z,1.70
2023-04-05T12:04:46.375Z,1.70
2023-04-05T12:07:19.803Z,1.90
2023-04-05T12:10:07.117Z,1.70
2023-04-05T12:12:38.424Z,1.70
2023-04-05T12:15:13.678Z,2.13
2023-04-05T12:17:50.630Z,2.23
2023-04-05T12:20:22.269Z,2.20
2023-04-05T12:22:53.213Z,1.87
2023-04-05T12:25:22.863Z,2.30
2023-04-05T12:27:52.047Z,2.00
2023-04-05T12:30:24.101Z,1.87
2023-04-05T12:32:54.613Z,2.40
2023-04-05T12:35:27.066Z,1.90
2023-04-05T12:37:59.777Z,1.83
2023-04-05T12:40:30.805Z,1.60
2023-04-05T12:43:04.258Z,2.10
2023-04-05T12:45:41.785Z,1.87
2023-04-05T12:48:13.416Z,2.07
2023-04-05T12:50:45.811Z,1.83
2023-04-05T12:53:21.419Z,2.03
2023-04-05T12:55:53.748Z,1.53
2023-04-05T12:58:24.403Z,1.70
2023-04-05T13:00:54.897Z,1.67
2023-04-05T13:03:26.703Z,1.20
2023-04-05T13:05:55.875Z,1.30
2023-04-05T13:08:27.027Z,0.88
2023-04-05T13:10:58.082Z,0.98
2023-04-05T13:13:27.463Z,1.10
2023-04-05T13:15:57.940Z,1.15
2023-04-05T13:18:27.098Z,1.20
2023-04-05T13:20:56.164Z,1.60
2023-04-05T13:23:25.363Z,1.73
2023-04-05T13:25:54.450Z,1.77
2023-04-05T13:28:25.802Z,2.10
2023-04-05T13:30:55.041Z,1.95
2023-04-05T13:33:25.543Z,2.33
2023-04-05T13:35:54.666Z,2.38
2023-04-05T13:38:23.760Z,2.27
2023-04-05T13:40:52.826Z,2.27
2023-04-05T13:43:21.896Z,1.80
2023-04-05T13:45:51.414Z,2.00
2023-04-05T13:48:20.638Z,2.07
2023-04-05T13:50:51.129Z,2.37
2023-04-05T13:53:20.234Z,2.13
2023-04-05T13:55:49.300Z,2.27
2023-04-05T13:58:18.350Z,2.30
2023-04-05T14:00:47.476Z,2.23
2023-04-05T14:03:16.738Z,2.40
2023-04-05T14:05:47.738Z,2.50
2023-04-05T14:08:20.539Z,2.03
2023-04-05T14:10:50.061Z,2.07
2023-04-05T14:13:19.212Z,2.00
2023-04-05T14:15:49.387Z,2.20
2023-04-05T14:18:18.762Z,2.00
2023-04-05T14:20:47.942Z,1.70
2023-04-05T14:23:17.215Z,1.67
2023-04-05T14:25:51.936Z,1.88
2023-04-05T14:28:21.359Z,1.83
2023-04-05T14:30:52.024Z,1.97
2023-04-05T14:33:21.278Z,1.87
2023-04-05T14:35:50.542Z,1.57
2023-04-05T14:38:19.853Z,1.57
2023-04-05T14:40:50.560Z,1.20
2023-04-05T14:43:19.787Z,1.27
2023-04-05T14:45:48.984Z,1.20
2023-04-05T14:48:18.289Z,1.10
2023-04-05T14:50:47.568Z,1.30
2023-04-05T14:53:16.982Z,1.37
2023-04-05T14:55:46.230Z,1.70
2023-04-05T14:58:16.915Z,1.20
2023-04-05T15:00:48.889Z,1.07
2023-04-05T15:03:19.615Z,1.40
2023-04-05T15:05:49.138Z,1.03
2023-04-05T15:08:18.497Z,1.30
2023-04-05T15:10:48.225Z,1.07
2023-04-05T15:13:21.794Z,1.37
2023-04-05T15:15:51.027Z,1.30
2023-04-05T15:18:20.270Z,1.50
2023-04-05T15:20:49.559Z,1.30
2023-04-05T15:23:18.776Z,1.50
2023-04-05T15:25:48.823Z,1.70
2023-04-05T15:28:19.479Z,1.60
2023-04-05T15:30:51.040Z,1.50
2023-04-05T15:33:20.350Z,1.70
2023-04-05T15:35:49.643Z,1.50
2023-04-05T15:38:18.920Z,1.20
2023-04-05T15:40:49.586Z,1.90
2023-04-05T15:43:20.536Z,1.73
2023-04-05T15:45:49.825Z,1.73
2023-04-05T15:48:19.065Z,1.70
2023-04-05T15:50:48.335Z,1.50
2023-04-05T15:53:17.552Z,1.73
2023-04-05T15:55:46.808Z,1.50
2023-04-05T15:58:15.995Z,1.37
2023-04-05T16:00:46.970Z,1.40
2023-04-05T16:03:16.281Z,1.50
2023-04-05T16:05:45.548Z,1.43
2023-04-05T16:08:14.829Z,1.60
2023-04-05T16:10:44.797Z,1.73
2023-04-05T16:13:14.068Z,1.50
2023-04-05T16:15:43.283Z,1.37
2023-04-05T16:18:14.516Z,1.03
2023-04-05T16:20:44.176Z,1.13
2023-04-05T16:23:13.906Z,1.00
2023-04-05T16:25:43.375Z,1.13
2023-04-05T16:28:12.669Z,1.20
2023-04-05T16:30:45.675Z,0.97
2023-04-05T16:33:18.063Z,0.70
2023-04-05T16:35:47.287Z,1.00
2023-04-05T16:38:16.679Z,1.20
2023-04-05T16:40:45.988Z,1.23
2023-04-05T16:43:15.484Z,1.07
2023-04-05T16:45:45.071Z,1.10
2023-04-05T16:48:14.769Z,1.23
2023-04-05T16:50:45.346Z,0.90
2023-04-05T16:53:15.975Z,0.70
2023-04-05T16:55:45.169Z,0.90
2023-04-05T16:58:14.497Z,0.90
2023-04-05T17:00:43.725Z,1.20
2023-04-05T17:03:13.053Z,1.10
2023-04-05T17:05:42.269Z,0.90
2023-04-05T17:08:13.105Z,1.00
2023-04-05T17:10:42.356Z,1.00
2023-04-05T17:13:11.598Z,0.90
2023-04-05T17:15:40.816Z,0.90
2023-04-05T17:18:10.118Z,1.10
2023-04-05T17:20:39.357Z,1.10
2023-04-05T17:23:08.679Z,0.80
2023-04-05T17:25:39.593Z,1.20
2023-04-05T17:28:08.923Z,1.10
2023-04-05T17:30:38.143Z,0.93
2023-04-05T17:33:10.353Z,1.60
2023-04-05T17:35:39.754Z,1.00
2023-04-05T17:38:09.148Z,1.03
2023-04-05T17:40:39.873Z,1.00
2023-04-05T17:43:09.115Z,1.37
2023-04-05T17:45:38.338Z,1.23
2023-04-05T17:48:07.848Z,1.20
2023-04-05T17:50:40.407Z,1.10
2023-04-05T17:53:15.095Z,1.40
2023-04-05T17:55:45.996Z,1.37
2023-04-05T17:58:31.014Z,1.50
2023-04-05T18:01:01.271Z,1.23
2023-04-05T18:03:36.944Z,2.00
2023-04-05T18:06:07.047Z,1.77
2023-04-05T18:08:39.088Z,1.77
2023-04-05T18:11:16.009Z,1.87
2023-04-05T18:13:48.597Z,2.40
2023-04-05T18:16:25.633Z,2.50
2023-04-05T18:18:57.863Z,2.20
2023-04-05T18:21:30.029Z,1.60
2023-04-05T18:24:02.308Z,1.93
2023-04-05T18:26:35.959Z,1.80
2023-04-05T18:29:06.642Z,1.67
2023-04-05T18:31:40.394Z,1.47
2023-04-05T18:34:11.389Z,1.60
2023-04-05T18:36:47.330Z,1.90
2023-04-05T18:39:25.122Z,1.80
2023-04-05T18:41:59.740Z,1.90
2023-04-05T18:44:29.155Z,1.53
2023-04-05T18:47:05.467Z,1.60
2023-04-05T18:49:37.076Z,2.07
2023-04-05T18:52:10.205Z,2.03
2023-04-05T18:54:42.061Z,1.87
2023-04-05T18:57:12.836Z,1.80
2023-04-05T18:59:42.485Z,1.73
2023-04-05T19:02:12.532Z,2.07
2023-04-05T19:04:43.414Z,1.97
2023-04-05T19:07:12.753Z,1.20
2023-04-05T19:09:48.589Z,1.50
2023-04-05T19:12:22.181Z,1.60
2023-04-05T19:14:51.783Z,1.67
2023-04-05T19:17:21.460Z,1.30
2023-04-05T19:19:51.032Z,1.60
2023-04-05T19:22:29.164Z,2.00
2023-04-05T19:25:07.541Z,1.50
2023-04-05T19:27:45.911Z,1.80
2023-04-05T19:30:19.028Z,2.10
2023-04-05T19:32:56.693Z,2.10
2023-04-05T19:35:29.105Z,1.80
2023-04-05T19:38:02.288Z,2.13
2023-04-05T19:40:32.524Z,2.00
2023-04-05T19:43:04.774Z,1.90
2023-04-05T19:45:37.705Z,2.07
2023-04-05T19:48:39.182Z,2.20
2023-04-05T19:51:12.331Z,1.90
2023-04-05T19:53:48.004Z,2.27
2023-04-05T19:56:31.107Z,2.07
2023-04-05T19:59:04.706Z,2.10
2023-04-05T20:01:38.344Z,1.80
2023-04-05T20:04:17.071Z,2.30
2023-04-05T20:06:53.361Z,2.13
2023-04-05T20:09:26.465Z,1.90
2023-04-05T20:11:58.291Z,2.30
2023-04-05T20:14:41.062Z,2.03
2023-04-05T20:17:12.228Z,2.10
2023-04-05T20:19:42.662Z,2.27
2023-04-05T20:22:15.986Z,2.27
2023-04-05T20:24:47.122Z,2.13
2023-04-05T20:27:19.379Z,2.10
2023-04-05T20:29:54.127Z,2.30
2023-04-05T20:32:27.837Z,2.20
2023-04-05T20:35:02.204Z,1.63
2023-04-05T20:37:31.639Z,2.33
2023-04-05T20:40:01.273Z,2.00
2023-04-05T20:42:36.374Z,2.70
2023-04-05T20:45:11.060Z,2.17
2023-04-05T20:47:41.473Z,2.63
2023-04-05T20:50:14.734Z,2.30
2023-04-05T20:52:44.570Z,2.63
2023-04-05T20:55:19.815Z,2.30
2023-04-05T20:57:54.974Z,2.10
2023-04-05T21:00:27.972Z,2.40
2023-04-05T21:02:57.923Z,2.17
2023-04-05T21:05:27.917Z,2.23
2023-04-05T21:07:58.144Z,2.40
2023-04-05T21:10:27.878Z,2.97
2023-04-05T21:12:58.648Z,2.43
2023-04-05T21:15:31.737Z,2.27
2023-04-05T21:18:01.718Z,2.43
2023-04-05T21:20:34.410Z,2.73
2023-04-05T21:23:07.669Z,2.37
2023-04-05T21:25:37.003Z,1.93
2023-04-05T21:28:06.298Z,2.20
2023-04-05T21:30:36.993Z,2.60
2023-04-05T21:33:06.302Z,2.60
2023-04-05T21:35:35.911Z,2.40
2023-04-05T21:38:05.470Z,1.83
2023-04-05T21:40:35.388Z,2.47
2023-04-05T21:43:04.965Z,2.27
2023-04-05T21:45:34.217Z,2.10
2023-04-05T21:48:05.050Z,2.87
2023-04-05T21:50:34.657Z,2.57
2023-04-05T21:53:05.289Z,2.07
2023-04-05T21:55:34.544Z,2.10
2023-04-05T21:58:03.774Z,2.23
2023-04-05T22:00:33.184Z,2.27
2023-04-05T22:03:03.982Z,2.30
2023-04-05T22:05:38.467Z,2.67
2023-04-05T22:08:09.572Z,3.07
2023-04-05T22:10:39.910Z,2.47
2023-04-05T22:13:09.147Z,2.50
2023-04-05T22:15:38.357Z,2.63
2023-04-05T22:18:08.953Z,2.50
2023-04-05T22:20:38.293Z,3.07
2023-04-05T22:23:07.695Z,2.40
2023-04-05T22:25:36.893Z,3.40
2023-04-05T22:28:06.286Z,2.30
2023-04-05T22:30:43.798Z,2.70
2023-04-05T22:33:15.322Z,2.37
2023-04-05T22:35:44.634Z,3.07
2023-04-05T22:38:13.912Z,3.80
2023-04-05T22:40:45.208Z,3.73
2023-04-05T22:43:14.507Z,3.00
2023-04-05T22:45:43.855Z,2.63
2023-04-05T22:48:14.416Z,2.43
2023-04-05T22:50:43.561Z,2.80
2023-04-05T22:53:12.773Z,2.63
2023-04-05T22:55:42.793Z,2.43
2023-04-05T22:58:12.147Z,2.53
2023-04-05T23:00:41.595Z,2.60
2023-04-05T23:03:10.946Z,3.83
2023-04-05T23:05:41.536Z,3.30
2023-04-05T23:08:10.840Z,2.87
2023-04-05T23:10:40.022Z,2.93
2023-04-05T23:13:09.240Z,3.53
2023-04-05T23:15:38.475Z,3.27
2023-04-05T23:18:07.910Z,2.83
2023-04-05T23:20:37.160Z,2.70
2023-04-05T23:23:07.696Z,2.27
2023-04-05T23:25:36.942Z,2.93
2023-04-05T23:28:06.435Z,2.97
2023-04-05T23:30:35.643Z,2.10
2023-04-05T23:33:05.035Z,2.60
2023-04-05T23:35:34.347Z,2.60
2023-04-05T23:38:03.796Z,2.53
2023-04-05T23:40:34.380Z,3.50
2023-04-05T23:43:03.546Z,3.30
2023-04-05T23:45:32.971Z,3.30
2023-04-05T23:48:02.547Z,2.57
2023-04-05T23:50:31.790Z,3.07
2023-04-05T23:53:02.782Z,3.20
2023-04-05T23:55:35.087Z,2.67
2023-04-05T23:58:04.269Z,3.30
